Terminal Aerodrome Forecast
Issued by NWS

Home | Current Version | Previous Version | Text Only | Print | Product List | Glossary Off
Versions: 1 2 3 4 5 6 7 8 9 10 11 12 13 14 15 16 17

332
FTUS43 KGRB 270333 AAB
TAFCWA
TAF AMD
KCWA 270333Z 2704/2724 34005KT 5SM BR OVC003
     FM270800 VRB03KT 3SM BR OVC003
     FM271700 35004KT 6SM BR OVC007=

USA.gov is the U.S. government's official web portal to all federal, state and local government web resources and services.